Weather at Abraham Lincoln Capital Airport

Public forecast

Using degrees Fahrenheit for public forecast. Weather courtesy of forecast.io.

Current aviation weather report (METAR) for Abraham Lincoln Capital Airport

Retrieved 2021/05/11 17:52 UTC (1 hour ago):

KSPI 111752Z 05015KT 10SM CLR 14/02 A3031 RMK AO2 SLP264 T01440017 10150 20072 58005

Aviation forecast (TAF) for Abraham Lincoln Capital Airport

Retrieved 2021/05/11 18:33 UTC (23 minutes ago):

TAF KSPI 111731Z 1118/1218 06010G18KT P6SM FEW050 OVC250 FM112200 06008KT P6SM BKN250 FM120800 07006KT P6SM SKC